createdAt,value
2022-09-15T03:57:56.163Z,19.03
2022-09-15T04:00:59.714Z,18.96
2022-09-15T04:04:03.256Z,18.96
2022-09-15T04:07:06.270Z,19.00
2022-09-15T04:10:10.059Z,19.09
2022-09-15T04:13:13.213Z,19.07
2022-09-15T04:16:18.808Z,19.05
2022-09-15T04:19:21.674Z,19.08
2022-09-15T04:22:24.920Z,19.06
2022-09-15T04:25:28.093Z,19.11
2022-09-15T04:28:36.642Z,19.13
2022-09-15T04:31:39.627Z,19.15
2022-09-15T04:34:42.725Z,19.15
2022-09-15T04:37:45.656Z,19.12
2022-09-15T04:40:51.903Z,19.10
2022-09-15T04:43:55.680Z,19.13
2022-09-15T04:46:59.182Z,19.19
2022-09-15T04:50:02.344Z,19.38
2022-09-15T04:53:05.617Z,19.62
2022-09-15T04:56:17.227Z,19.68
2022-09-15T04:59:20.495Z,19.77
2022-09-15T05:02:23.449Z,19.76
2022-09-15T05:05:27.130Z,19.85
2022-09-15T05:08:30.060Z,19.97
2022-09-15T05:11:33.160Z,20.07
2022-09-15T05:14:35.793Z,20.18
2022-09-15T05:17:38.877Z,20.24
2022-09-15T05:20:41.752Z,20.32
2022-09-15T05:23:45.414Z,20.30
2022-09-15T05:26:48.343Z,20.31
2022-09-15T05:30:04.340Z,20.31
2022-09-15T05:33:14.221Z,20.33
2022-09-15T05:36:20.262Z,20.26
2022-09-15T05:39:23.407Z,20.24
2022-09-15T05:42:26.594Z,20.16
2022-09-15T05:45:29.510Z,20.15
2022-09-15T05:48:34.248Z,20.23
2022-09-15T05:51:37.086Z,20.21
2022-09-15T05:54:40.024Z,20.28
2022-09-15T05:57:42.772Z,20.35
2022-09-15T06:00:46.773Z,20.42
2022-09-15T06:03:50.679Z,20.59
2022-09-15T06:06:53.458Z,20.60
2022-09-15T06:09:56.624Z,20.76
2022-09-15T06:12:59.283Z,20.85
2022-09-15T06:16:08.756Z,20.87
2022-09-15T06:19:12.261Z,20.91
2022-09-15T06:22:15.458Z,20.90
2022-09-15T06:25:18.398Z,20.98
2022-09-15T06:28:21.878Z,21.02
2022-09-15T06:31:26.720Z,21.19
2022-09-15T06:34:30.301Z,21.28
2022-09-15T06:37:36.505Z,21.39
2022-09-15T06:40:39.665Z,21.51
2022-09-15T06:43:42.811Z,21.63
2022-09-15T06:46:46.232Z,21.68
2022-09-15T06:49:49.109Z,21.77
2022-09-15T06:52:52.297Z,21.81
2022-09-15T06:55:55.121Z,21.80
2022-09-15T06:58:59.692Z,21.85
2022-09-15T07:02:05.103Z,21.83
2022-09-15T07:05:08.760Z,21.91
2022-09-15T07:08:12.071Z,21.82
2022-09-15T07:11:16.211Z,21.81
2022-09-15T07:14:19.129Z,21.86
2022-09-15T07:17:22.445Z,21.95
2022-09-15T07:20:26.063Z,22.15
2022-09-15T07:23:29.913Z,22.27
2022-09-15T07:26:33.818Z,22.32
2022-09-15T07:29:38.811Z,22.34
2022-09-15T07:32:41.843Z,22.52
2022-09-15T07:35:45.114Z,22.75
2022-09-15T07:38:49.759Z,23.13
2022-09-15T07:41:52.866Z,23.25
2022-09-15T07:44:55.542Z,23.54
2022-09-15T07:47:58.711Z,23.61
2022-09-15T07:51:01.812Z,23.76
2022-09-15T07:54:04.901Z,23.90
2022-09-15T07:57:08.342Z,23.86
2022-09-15T08:00:12.543Z,23.92
2022-09-15T08:03:16.347Z,24.06
2022-09-15T08:06:23.727Z,24.23
2022-09-15T08:09:27.017Z,24.08
2022-09-15T08:12:31.286Z,24.25
2022-09-15T08:15:37.657Z,24.66
2022-09-15T08:18:42.533Z,24.78
2022-09-15T08:21:45.647Z,24.55
2022-09-15T08:24:48.743Z,24.61
2022-09-15T08:27:54.030Z,24.57
2022-09-15T08:31:06.804Z,24.41
2022-09-15T08:34:15.882Z,24.58
2022-09-15T08:37:18.608Z,24.59
2022-09-15T08:40:26.808Z,24.79
2022-09-15T08:43:35.975Z,25.06
2022-09-15T08:46:46.368Z,25.21
2022-09-15T08:50:15.517Z,25.46
2022-09-15T08:53:38.549Z,25.51
2022-09-15T08:56:43.512Z,25.68
2022-09-15T08:59:46.673Z,25.74
2022-09-15T09:03:16.412Z,25.81
2022-09-15T09:06:36.235Z,26.15
2022-09-15T09:09:49.873Z,26.28
2022-09-15T09:13:10.357Z,26.49
2022-09-15T09:16:32.954Z,26.66
2022-09-15T09:19:45.119Z,26.72
2022-09-15T09:22:51.705Z,26.76
2022-09-15T09:25:57.160Z,26.81
2022-09-15T09:29:02.379Z,26.88
2022-09-15T09:32:19.812Z,26.88
2022-09-15T09:35:43.146Z,26.82
2022-09-15T09:38:48.252Z,26.70
2022-09-15T09:41:51.376Z,26.78
2022-09-15T09:44:54.574Z,27.05
2022-09-15T09:48:02.972Z,27.26
2022-09-15T09:51:31.711Z,27.11
2022-09-15T09:54:35.529Z,27.28
2022-09-15T09:57:40.712Z,27.26
2022-09-15T10:00:43.909Z,27.21
2022-09-15T10:03:47.477Z,27.28
2022-09-15T10:06:50.335Z,27.31
2022-09-15T10:10:01.729Z,27.29
2022-09-15T10:13:04.703Z,27.32
2022-09-15T10:16:08.004Z,27.20
2022-09-15T10:19:14.924Z,27.17
2022-09-15T10:22:26.492Z,27.21
2022-09-15T10:25:49.640Z,27.40
2022-09-15T10:29:11.812Z,27.45
2022-09-15T10:32:35.679Z,27.63
2022-09-15T10:35:42.400Z,27.74
2022-09-15T10:38:48.212Z,27.59
2022-09-15T10:42:15.700Z,27.55
2022-09-15T10:45:24.711Z,27.56
2022-09-15T10:48:49.653Z,27.52
2022-09-15T10:52:14.024Z,27.40
2022-09-15T10:55:52.856Z,27.57
2022-09-15T10:59:08.583Z,27.87
2022-09-15T11:02:41.063Z,27.81
2022-09-15T11:06:05.417Z,27.88
2022-09-15T11:09:13.991Z,28.05
2022-09-15T11:12:30.674Z,28.18
2022-09-15T11:15:50.228Z,27.98
2022-09-15T11:19:06.812Z,27.76
2022-09-15T11:22:24.610Z,27.50
2022-09-15T11:25:32.180Z,27.17
2022-09-15T11:28:47.390Z,26.86
2022-09-15T11:31:57.488Z,26.72
2022-09-15T11:35:06.581Z,26.45
2022-09-15T11:38:34.575Z,26.14
2022-09-15T11:42:01.356Z,25.88
2022-09-15T11:45:06.760Z,25.52
2022-09-15T11:48:28.385Z,25.44
2022-09-15T11:51:39.440Z,25.39
2022-09-15T11:54:52.893Z,25.44
2022-09-15T11:58:16.357Z,25.71
2022-09-15T12:01:28.639Z,25.93
2022-09-15T12:04:37.744Z,26.24
2022-09-15T12:07:51.341Z,26.38
2022-09-15T12:10:59.046Z,26.29
2022-09-15T12:14:04.394Z,26.22
2022-09-15T12:17:11.291Z,25.99
2022-09-15T12:20:22.945Z,25.68
2022-09-15T12:23:53.406Z,25.44
2022-09-15T12:26:59.185Z,25.25
2022-09-15T12:30:02.470Z,25.16
2022-09-15T12:33:44.365Z,25.07
2022-09-15T12:36:49.445Z,24.75
2022-09-15T12:39:53.957Z,24.54
2022-09-15T12:42:57.656Z,24.22
2022-09-15T12:46:02.137Z,23.92
2022-09-15T12:49:05.291Z,23.69
2022-09-15T12:52:10.027Z,23.35
2022-09-15T12:55:29.709Z,22.98
2022-09-15T12:58:37.633Z,22.46
2022-09-15T13:01:49.004Z,21.98
2022-09-15T13:04:54.701Z,21.59
2022-09-15T13:07:58.181Z,21.28
2022-09-15T13:11:21.936Z,20.89
2022-09-15T13:14:32.893Z,20.29
2022-09-15T13:17:36.567Z,19.91
2022-09-15T13:20:47.102Z,19.71
2022-09-15T13:23:53.110Z,19.52
2022-09-15T13:26:56.890Z,19.01
2022-09-15T13:30:10.302Z,18.55
2022-09-15T13:40:47.939Z,17.60
2022-09-15T13:44:20.640Z,17.54
2022-09-15T13:47:46.868Z,17.57
2022-09-15T13:50:59.838Z,17.64
2022-09-15T13:54:06.832Z,17.64
2022-09-15T13:57:09.585Z,17.75
2022-09-15T14:00:22.976Z,17.82
2022-09-15T14:03:43.750Z,17.81
2022-09-15T14:06:50.090Z,17.83
2022-09-15T14:09:52.985Z,17.71
2022-09-15T14:13:01.223Z,17.74
2022-09-15T14:16:11.911Z,17.57
2022-09-15T14:19:35.328Z,17.45
2022-09-15T14:23:05.154Z,17.66
2022-09-15T14:26:14.825Z,17.69
2022-09-15T14:29:20.713Z,17.68
2022-09-15T14:32:25.328Z,17.68
2022-09-15T14:35:38.064Z,17.65
2022-09-15T14:38:41.207Z,17.58
2022-09-15T14:41:45.542Z,17.49
2022-09-15T14:48:17.102Z,17.41
2022-09-15T14:51:20.622Z,17.37
2022-09-15T14:54:32.790Z,17.46
2022-09-15T15:09:56.521Z,17.59
2022-09-15T15:13:05.559Z,17.61
2022-09-15T15:24:24.030Z,17.67
2022-09-15T15:27:32.888Z,17.69
2022-09-15T15:30:46.825Z,17.67
2022-09-15T15:33:59.186Z,17.68
2022-09-15T15:41:22.572Z,17.64
2022-09-15T15:44:28.537Z,17.67
2022-09-15T15:51:35.635Z,17.80
2022-09-15T15:54:53.482Z,17.87
2022-09-15T15:57:56.263Z,17.92
2022-09-15T16:01:03.199Z,17.97
2022-09-15T16:04:41.732Z,18.00
2022-09-15T16:07:47.393Z,18.06
2022-09-15T16:10:51.752Z,18.01
2022-09-15T16:13:54.621Z,18.01
2022-09-15T16:17:00.189Z,17.93
2022-09-15T16:20:03.585Z,17.86
2022-09-15T16:23:07.655Z,17.77
